Manchester, NJ

2:01 AM EST on November 26, 2014 (GMT -0500)
Crestwood Village 7 | Change Station
CLOSE
Current Station
Personal Weather Station
Location: Manchester Township, NJ
Elevation: 154 ft
Nearby Weather Stations

Elev 154 ft 39.95 °N, 74.37 °W | Updated 5 seconds ago

Overcast
Overcast
44.2 °F
Feels Like 44 °F
N
0.0
Wind Variable Wind from SW
Gusts 1.0 mph

Today
High -- | Low -- °F
--% Chance of Precip.
Yesterday
High -- | Low -- °F
Precip. -- in
6:54 AM 4:34 PM
Waxing Crescent, 17% visible
Pressure 30.17 in
Visibility 10.0 miles
Clouds Mostly Cloudy 7000 ft
Overcast 8000 ft
Windchill 44 °F
Dew Point 38 °F
Humidity 80%
Rainfall 0.00 in
Snow Depth Not available.
UV 0 out of 12
Pollen .10 out of 12
Air Quality Not available.
Flu Activity Not available.
METAR KMJX 260655Z AUTO 01003KT 10SM BKN070 OVC080 06/03 A3017 RMK AO1

More Conditions Fewer Conditions

Pressure 30.17 in
Visibility 10.0 miles
Clouds Mostly Cloudy 7000 ft
Overcast 8000 ft
Windchill 44 °F
Dew Point 38 °F
Humidity 80%
Rainfall 0.00 in
Snow Depth Not available.
UV 0 out of 12
Pollen .10 out of 12
Air Quality Not available.
Flu Activity Not available.
METAR KMJX 260655Z AUTO 01003KT 10SM BKN070 OVC080 06/03 A3017 RMK AO1

More Conditions Fewer Conditions

10-Day Weather Forecast

Almanac

Astronomy

Nov. 26, 2014 Rise Set
Actual Time
Civil Twilight
Nautical Twilight
Astronomical Twilight
Moon
Length of Visible Light
Length of Day
Tomorrow will be .
, % of the Moon is Illuminated

Today's Extremes

State Highs State Lows

Community

WunderPhotos

Upload Photos

1,773,694 photos uploaded!

WunderBlogs® & News

Nearby

Air Quality

  Air Quality AQ Index Pollutant
Not available.

Snow Depth

Station Depth Elevation

Earthquake Activity

City Distance Mag. Time & Date
Minimum magnitude displayed is 2.5.

Coastal Water Temperatures

Place Temperature

Nearby Weather Stations